EPLL/LCJ METAR and TAF weather

Enter ICAO airport designator
Station Type Date Time Source
EPLL METAR 2020/07/14 17:30 UTC NOAA

EPLL 141730Z 32004KT CAVOK 21/11 Q1015


Station Type Date Time Source
EPLL Decoded METAR 2020/07/14 17:30 UTC NOAA

Station name not available
Jul 14, 2020 - 01:30 PM EDT / 2020.07.14 1730 UTC
Wind: from the NW (320 degrees) at 5 MPH (4 KT):0
Visibility: greater than 7 mile(s):0
Temperature: 69 F (21 C)
Dew Point: 51 F (11 C)
Relative Humidity: 52%
Pressure (altimeter): 29.97 in. Hg (1015 hPa)
ob: EPLL 141730Z 32004KT CAVOK 21/11 Q1015
cycle: 17

Station Type Date Time Source
EPLL TAF 2020/07/14 18:00 UTC NOAA

TAF EPLL 141730Z 1418/1518 VRB02KT CAVOK

Example: see airport list